Time;durP1;ratioP1;P1;durP2;ratioP2;P2;SDS_P1;SDS_P2;PMS_P1;PMS_P2;Temp;Humidity;BMP_temperature;BMP_pressure;BME280_temperature;BME280_humidity;BME280_pressure;Samples;Min_cycle;Max_cycle;Signal;HPM_P1;HPM_P2
2022/08/25 00:00:42;;;;;;;18.58;6.78;;;;;;;;;;3367557;42;20903;-60
2022/08/25 00:03:09;;;;;;;20.48;6.88;;;;;;;;;;3361372;42;20114;-59
2022/08/25 00:05:35;;;;;;;19.70;6.93;;;;;;;;;;3366608;42;20088;-58
2022/08/25 00:08:02;;;;;;;17.67;7.13;;;;;;;;;;3367606;42;20206;-59
2022/08/25 00:10:28;;;;;;;25.38;7.22;;;;;;;;;;3367635;42;20095;-58
2022/08/25 00:12:54;;;;;;;18.55;7.28;;;;;;;;;;3366235;42;20577;-59
2022/08/25 00:15:21;;;;;;;20.15;6.90;;;;;;;;;;3367372;42;20083;-59
2022/08/25 00:17:47;;;;;;;21.63;7.30;;;;;;;;;;3367492;42;20126;-59
2022/08/25 00:20:13;;;;;;;22.58;6.47;;;;;;;;;;3367535;42;20126;-59
2022/08/25 00:22:40;;;;;;;19.23;7.20;;;;;;;;;;3367520;42;20510;-60
2022/08/25 00:25:07;;;;;;;18.98;7.22;;;;;;;;;;3366413;42;20079;-58
2022/08/25 00:27:33;;;;;;;19.63;7.00;;;;;;;;;;3367715;42;20186;-60
2022/08/25 00:29:59;;;;;;;17.00;6.43;;;;;;;;;;3367650;42;20502;-59
2022/08/25 00:32:25;;;;;;;20.60;6.70;;;;;;;;;;3367261;42;20567;-59
2022/08/25 00:34:52;;;;;;;18.25;6.57;;;;;;;;;;3366502;42;20155;-58
2022/08/25 00:37:18;;;;;;;18.35;6.50;;;;;;;;;;3367135;42;20095;-60
2022/08/25 00:39:44;;;;;;;18.35;6.82;;;;;;;;;;3361069;42;20104;-56
2022/08/25 00:42:11;;;;;;;20.30;7.07;;;;;;;;;;3367552;42;20134;-59
2022/08/25 00:44:37;;;;;;;17.90;6.90;;;;;;;;;;3365929;42;20146;-60
2022/08/25 00:47:04;;;;;;;15.82;6.80;;;;;;;;;;3367303;42;20106;-61
2022/08/25 00:49:50;;;;;;;21.63;6.82;;;;;;;;;;3367322;42;20092;-62
2022/08/25 00:52:41;;;;;;;19.85;6.45;;;;;;;;;;3367481;42;20095;-61
2022/08/25 00:55:12;;;;;;;19.63;6.60;;;;;;;;;;3367036;42;20758;-58
2022/08/25 00:57:51;;;;;;;20.95;6.95;;;;;;;;;;3367111;42;20493;-59
2022/08/25 01:00:32;;;;;;;22.85;6.90;;;;;;;;;;3365367;42;20601;-58
2022/08/25 01:02:58;;;;;;;23.38;7.20;;;;;;;;;;3367087;42;20106;-59
2022/08/25 01:05:24;;;;;;;25.13;7.72;;;;;;;;;;3367072;42;20195;-62
2022/08/25 01:07:51;;;;;;;23.93;7.57;;;;;;;;;;3366902;42;20161;-60
2022/08/25 01:10:17;;;;;;;20.55;8.00;;;;;;;;;;3367001;42;20578;-61
2022/08/25 01:12:43;;;;;;;16.23;6.80;;;;;;;;;;3365493;42;20739;-62
2022/08/25 01:15:12;;;;;;;21.60;7.25;;;;;;;;;;3366464;42;20736;-60
2022/08/25 01:17:47;;;;;;;19.20;7.18;;;;;;;;;;3366914;42;20143;-59
2022/08/25 01:20:13;;;;;;;19.87;7.27;;;;;;;;;;3365619;42;20575;-60
2022/08/25 01:22:39;;;;;;;24.25;7.38;;;;;;;;;;3373134;42;20088;-60
2022/08/25 01:25:22;;;;;;;18.25;6.82;;;;;;;;;;3367370;42;20096;-59
2022/08/25 01:27:48;;;;;;;18.90;6.97;;;;;;;;;;3365680;42;20210;-59
2022/08/25 01:30:14;;;;;;;20.75;7.18;;;;;;;;;;3366865;42;20095;-59
2022/08/25 01:32:40;;;;;;;21.47;7.17;;;;;;;;;;3367006;42;20549;-59
2022/08/25 01:35:06;;;;;;;20.98;7.47;;;;;;;;;;3365718;42;20139;-60
2022/08/25 01:37:33;;;;;;;21.10;7.35;;;;;;;;;;3366794;42;20572;-59
2022/08/25 01:39:59;;;;;;;21.63;7.00;;;;;;;;;;3365475;42;20795;-62
2022/08/25 01:42:37;;;;;;;17.80;7.13;;;;;;;;;;3367067;42;20096;-60
2022/08/25 01:45:04;;;;;;;21.92;7.55;;;;;;;;;;3362954;42;20564;-59
2022/08/25 01:47:31;;;;;;;18.88;7.47;;;;;;;;;;3366693;42;20099;-59
2022/08/25 01:49:57;;;;;;;20.02;7.30;;;;;;;;;;3366532;42;20514;-60
2022/08/25 01:52:28;;;;;;;24.40;7.45;;;;;;;;;;3365637;42;20605;-60
2022/08/25 01:54:54;;;;;;;18.80;6.97;;;;;;;;;;3367100;42;20095;-60
2022/08/25 01:57:21;;;;;;;17.50;6.53;;;;;;;;;;3365209;42;20207;-58
2022/08/25 01:59:47;;;;;;;21.05;7.63;;;;;;;;;;3366777;42;20112;-59
2022/08/25 02:02:12;;;;;;;18.67;7.18;;;;;;;;;;3366701;42;20508;-60
2022/08/25 02:04:39;;;;;;;19.63;8.03;;;;;;;;;;3365536;42;20102;-60
2022/08/25 02:07:05;;;;;;;20.95;7.57;;;;;;;;;;3366983;42;20083;-59
2022/08/25 02:09:31;;;;;;;22.80;7.90;;;;;;;;;;3366659;42;20171;-60
2022/08/25 02:11:58;;;;;;;21.85;7.47;;;;;;;;;;3366802;42;20084;-60
2022/08/25 02:14:24;;;;;;;19.25;7.60;;;;;;;;;;3366485;42;20099;-60
2022/08/25 02:16:50;;;;;;;24.27;8.27;;;;;;;;;;3366821;42;20162;-59
2022/08/25 02:19:17;;;;;;;18.35;7.85;;;;;;;;;;3365136;42;20139;-60
2022/08/25 02:21:43;;;;;;;19.40;7.28;;;;;;;;;;3366440;42;20098;-61
2022/08/25 02:24:09;;;;;;;26.33;7.93;;;;;;;;;;3366557;42;20104;-59
2022/08/25 02:26:35;;;;;;;22.67;7.97;;;;;;;;;;3365060;42;20088;-59
2022/08/25 02:29:01;;;;;;;23.80;8.33;;;;;;;;;;3366547;42;20103;-60
2022/08/25 02:31:27;;;;;;;25.73;8.70;;;;;;;;;;3365270;42;20170;-59
2022/08/25 02:33:54;;;;;;;22.90;8.20;;;;;;;;;;3366630;42;20239;-59
2022/08/25 02:36:20;;;;;;;22.65;8.82;;;;;;;;;;3366061;42;20463;-60
2022/08/25 02:38:46;;;;;;;19.55;8.18;;;;;;;;;;3366341;42;20108;-59
2022/08/25 02:41:15;;;;;;;18.07;8.00;;;;;;;;;;3366312;42;20095;-61
2022/08/25 02:43:41;;;;;;;21.67;8.23;;;;;;;;;;3366271;42;20108;-60
2022/08/25 02:46:08;;;;;;;23.27;8.48;;;;;;;;;;3364998;42;20656;-59
2022/08/25 02:48:34;;;;;;;27.60;8.93;;;;;;;;;;3364813;42;20099;-59
2022/08/25 02:51:00;;;;;;;24.63;8.45;;;;;;;;;;3366451;42;20110;-60
2022/08/25 02:53:27;;;;;;;21.03;8.27;;;;;;;;;;3366464;42;20096;-60
2022/08/25 02:55:53;;;;;;;19.42;7.75;;;;;;;;;;3366049;42;20484;-59
2022/08/25 02:58:19;;;;;;;27.25;8.82;;;;;;;;;;3366293;42;20699;-58
2022/08/25 03:00:45;;;;;;;18.60;7.50;;;;;;;;;;3364866;42;20096;-58
2022/08/25 03:03:11;;;;;;;23.02;8.15;;;;;;;;;;3366297;42;20562;-59
2022/08/25 03:05:38;;;;;;;22.07;8.30;;;;;;;;;;3365113;42;20099;-60
2022/08/25 03:08:04;;;;;;;23.98;8.68;;;;;;;;;;3366868;42;20094;-57
2022/08/25 03:10:30;;;;;;;19.77;8.05;;;;;;;;;;3364938;42;20094;-59
2022/08/25 03:12:56;;;;;;;18.75;7.85;;;;;;;;;;3366437;42;20512;-59
2022/08/25 03:15:24;;;;;;;20.05;7.95;;;;;;;;;;3366356;42;20099;-60
2022/08/25 03:17:50;;;;;;;22.40;8.03;;;;;;;;;;3366212;42;20096;-59
2022/08/25 03:20:17;;;;;;;20.35;7.50;;;;;;;;;;3364570;42;20173;-58
2022/08/25 03:22:43;;;;;;;19.75;7.47;;;;;;;;;;3366222;42;20173;-60
2022/08/25 03:27:53;;;;;;;19.25;8.40;;;;;;;;;;3366265;42;20559;-60
2022/08/25 03:30:20;;;;;;;23.23;7.70;;;;;;;;;;3365787;42;20118;-62
2022/08/25 03:32:46;;;;;;;23.92;8.00;;;;;;;;;;3365923;42;20502;-60
2022/08/25 03:35:12;;;;;;;19.27;7.72;;;;;;;;;;3365876;42;20592;-61
2022/08/25 03:37:38;;;;;;;17.80;7.70;;;;;;;;;;3365789;42;20582;-60
2022/08/25 03:40:05;;;;;;;17.77;7.70;;;;;;;;;;3364346;42;20135;-61
2022/08/25 03:42:31;;;;;;;19.25;7.65;;;;;;;;;;3365365;42;20729;-60
2022/08/25 03:44:58;;;;;;;29.10;8.63;;;;;;;;;;3365838;42;20693;-60
2022/08/25 03:47:25;;;;;;;19.52;8.10;;;;;;;;;;3365816;42;20555;-59
2022/08/25 03:49:51;;;;;;;18.65;7.65;;;;;;;;;;3366051;42;20102;-60
2022/08/25 03:52:17;;;;;;;23.70;7.83;;;;;;;;;;3366189;42;20100;-61
2022/08/25 03:54:43;;;;;;;33.88;8.55;;;;;;;;;;3365113;42;20103;-61
2022/08/25 03:57:10;;;;;;;65.75;10.10;;;;;;;;;;3365846;42;20510;-58
2022/08/25 03:59:37;;;;;;;17.40;8.30;;;;;;;;;;3360672;42;20655;-60
2022/08/25 04:02:04;;;;;;;24.98;8.57;;;;;;;;;;3359634;42;20655;-61
2022/08/25 04:04:30;;;;;;;22.30;8.57;;;;;;;;;;3360523;42;20876;-62
2022/08/25 04:06:57;;;;;;;27.63;8.30;;;;;;;;;;3360993;42;20104;-62
2022/08/25 04:09:23;;;;;;;24.58;8.40;;;;;;;;;;3360130;42;20567;-61
2022/08/25 04:11:49;;;;;;;26.48;8.57;;;;;;;;;;3359819;42;20307;-62
2022/08/25 04:14:15;;;;;;;23.23;7.83;;;;;;;;;;3356571;42;20086;-61
2022/08/25 04:16:41;;;;;;;66.10;10.07;;;;;;;;;;3363313;42;20792;-59
2022/08/25 04:19:08;;;;;;;23.83;8.40;;;;;;;;;;3363882;42;20116;-60
2022/08/25 04:21:35;;;;;;;17.23;7.30;;;;;;;;;;3365463;42;20518;-61
2022/08/25 04:24:01;;;;;;;17.38;8.40;;;;;;;;;;3365659;42;20110;-59
2022/08/25 04:26:29;;;;;;;18.27;8.57;;;;;;;;;;3364155;42;20092;-61
2022/08/25 04:28:56;;;;;;;18.02;8.55;;;;;;;;;;3365515;42;20147;-61
2022/08/25 04:31:22;;;;;;;21.52;9.73;;;;;;;;;;3365353;42;20088;-60
2022/08/25 04:33:48;;;;;;;18.63;8.30;;;;;;;;;;3365453;42;20084;-61
2022/08/25 04:36:15;;;;;;;18.47;8.90;;;;;;;;;;3364422;42;20094;-60
2022/08/25 04:38:41;;;;;;;19.48;8.75;;;;;;;;;;3363809;42;20100;-60
2022/08/25 04:41:08;;;;;;;21.30;10.38;;;;;;;;;;3363020;42;20566;-62
2022/08/25 04:43:34;;;;;;;24.10;9.60;;;;;;;;;;3364671;42;20162;-62
2022/08/25 04:46:11;;;;;;;24.13;11.18;;;;;;;;;;3366919;42;20207;-63
2022/08/25 04:48:38;;;;;;;28.03;11.07;;;;;;;;;;3357396;42;20096;-61
2022/08/25 04:51:05;;;;;;;26.90;12.60;;;;;;;;;;3370391;42;20097;-61
2022/08/25 04:53:32;;;;;;;26.40;11.77;;;;;;;;;;3366818;42;20088;-61
2022/08/25 04:55:58;;;;;;;27.67;11.50;;;;;;;;;;3365557;42;20169;-60
2022/08/25 04:58:24;;;;;;;24.08;11.50;;;;;;;;;;3371502;42;20139;-62
2022/08/25 05:00:50;;;;;;;28.07;12.67;;;;;;;;;;3364766;42;20106;-60
2022/08/25 05:03:16;;;;;;;26.52;12.90;;;;;;;;;;3366827;42;20159;-60
2022/08/25 05:05:42;;;;;;;28.38;13.38;;;;;;;;;;3366397;42;20609;-59
2022/08/25 05:08:09;;;;;;;26.65;14.05;;;;;;;;;;3365267;42;20562;-60
2022/08/25 05:10:38;;;;;;;26.63;12.60;;;;;;;;;;3366551;42;20686;-60
2022/08/25 05:13:04;;;;;;;29.80;13.02;;;;;;;;;;3366812;42;20118;-59
2022/08/25 05:18:18;;;;;;;28.23;11.27;;;;;;;;;;3362236;42;20586;-60
2022/08/25 05:20:44;;;;;;;28.05;11.10;;;;;;;;;;3366345;42;20092;-64
2022/08/25 05:23:10;;;;;;;25.73;11.97;;;;;;;;;;3366859;42;20100;-61
2022/08/25 05:25:36;;;;;;;28.55;11.52;;;;;;;;;;3360955;42;20562;-59
2022/08/25 05:28:02;;;;;;;23.38;11.75;;;;;;;;;;3366518;42;20116;-61
2022/08/25 05:30:28;;;;;;;26.88;11.43;;;;;;;;;;3365175;42;20605;-61
2022/08/25 05:32:54;;;;;;;26.53;11.23;;;;;;;;;;3361941;42;20103;-59
2022/08/25 05:35:21;;;;;;;25.63;10.90;;;;;;;;;;3362430;42;20088;-60
2022/08/25 05:37:47;;;;;;;25.60;11.05;;;;;;;;;;3364164;42;20094;-60
2022/08/25 05:40:13;;;;;;;25.67;11.32;;;;;;;;;;3361143;42;20107;-61
2022/08/25 05:42:39;;;;;;;24.00;10.53;;;;;;;;;;3361716;42;20127;-61
2022/08/25 05:45:05;;;;;;;23.35;9.63;;;;;;;;;;3362187;42;20084;-60
2022/08/25 05:47:31;;;;;;;26.77;10.68;;;;;;;;;;3363435;42;20147;-60
2022/08/25 05:49:57;;;;;;;21.17;10.68;;;;;;;;;;3361774;42;20514;-61
2022/08/25 05:52:26;;;;;;;23.17;10.20;;;;;;;;;;3365359;42;20585;-60
2022/08/25 05:54:52;;;;;;;21.48;10.15;;;;;;;;;;3366062;42;20630;-61
2022/08/25 05:57:18;;;;;;;24.35;10.60;;;;;;;;;;3366055;42;20087;-61
2022/08/25 05:59:44;;;;;;;22.00;10.52;;;;;;;;;;3362977;42;20550;-60
2022/08/25 06:05:17;;;;;;;20.38;10.13;;;;;;;;;;3337089;42;20182;-59
2022/08/25 06:07:44;;;;;;;17.15;9.82;;;;;;;;;;3335668;42;20145;-60
2022/08/25 06:10:12;;;;;;;17.40;9.68;;;;;;;;;;3346278;42;20088;-61
2022/08/25 06:12:40;;;;;;;24.55;10.57;;;;;;;;;;3359761;42;20111;-61
2022/08/25 06:15:06;;;;;;;18.77;10.23;;;;;;;;;;3361834;42;20095;-60
2022/08/25 06:17:34;;;;;;;20.75;10.05;;;;;;;;;;3361172;42;20114;-61
2022/08/25 06:20:00;;;;;;;17.55;9.52;;;;;;;;;;3363030;42;20142;-61
2022/08/25 06:22:27;;;;;;;14.70;9.23;;;;;;;;;;3361220;42;20104;-62
2022/08/25 06:24:53;;;;;;;14.15;8.05;;;;;;;;;;3364791;42;20104;-61
2022/08/25 06:27:20;;;;;;;19.30;9.10;;;;;;;;;;3362452;42;20093;-61
2022/08/25 06:29:46;;;;;;;14.45;8.68;;;;;;;;;;3362211;42;20115;-59
2022/08/25 06:32:12;;;;;;;15.98;8.77;;;;;;;;;;3365867;42;20083;-60
2022/08/25 06:34:38;;;;;;;13.23;8.45;;;;;;;;;;3364096;42;20493;-61
2022/08/25 06:37:04;;;;;;;13.77;7.73;;;;;;;;;;3371389;42;20153;-61
2022/08/25 06:39:30;;;;;;;14.00;7.43;;;;;;;;;;3364785;42;20316;-60
2022/08/25 06:41:56;;;;;;;14.73;7.70;;;;;;;;;;3365239;42;20145;-60
2022/08/25 06:44:22;;;;;;;14.90;7.93;;;;;;;;;;3365117;42;20092;-60
2022/08/25 06:46:49;;;;;;;13.77;7.53;;;;;;;;;;3365403;42;20094;-60
2022/08/25 06:49:15;;;;;;;14.07;7.60;;;;;;;;;;3363859;42;20100;-59
2022/08/25 06:51:41;;;;;;;12.73;7.65;;;;;;;;;;3363919;42;20147;-60
2022/08/25 06:54:08;;;;;;;16.60;8.50;;;;;;;;;;3364140;42;20166;-61
2022/08/25 06:56:35;;;;;;;13.48;8.23;;;;;;;;;;3364570;42;20083;-62
2022/08/25 06:59:02;;;;;;;17.00;8.05;;;;;;;;;;3363587;42;20611;-61
2022/08/25 07:01:28;;;;;;;14.00;7.90;;;;;;;;;;3361298;42;20096;-62
2022/08/25 07:03:56;;;;;;;15.18;7.65;;;;;;;;;;3363969;42;20111;-63
2022/08/25 07:06:22;;;;;;;18.52;8.52;;;;;;;;;;3362893;42;20559;-61
2022/08/25 07:08:48;;;;;;;14.68;7.68;;;;;;;;;;3365483;42;20505;-61
2022/08/25 07:11:14;;;;;;;17.00;7.83;;;;;;;;;;3364455;42;20572;-61
2022/08/25 07:13:40;;;;;;;14.35;7.20;;;;;;;;;;3365556;42;20110;-62
2022/08/25 07:16:06;;;;;;;13.68;7.72;;;;;;;;;;3365471;42;20099;-61
2022/08/25 07:18:32;;;;;;;13.45;7.10;;;;;;;;;;3359708;42;20131;-60
2022/08/25 07:20:58;;;;;;;14.23;6.93;;;;;;;;;;3360873;42;20091;-61
2022/08/25 07:23:24;;;;;;;14.63;6.73;;;;;;;;;;3361081;42;20214;-61
2022/08/25 07:25:51;;;;;;;12.88;6.68;;;;;;;;;;3359093;42;20092;-60
2022/08/25 07:28:17;;;;;;;11.70;6.40;;;;;;;;;;3360215;42;20135;-62
2022/08/25 07:30:43;;;;;;;13.90;6.93;;;;;;;;;;3362691;42;20088;-60
2022/08/25 07:33:09;;;;;;;14.97;6.60;;;;;;;;;;3365301;42;20177;-60
2022/08/25 07:35:36;;;;;;;11.18;6.43;;;;;;;;;;3371012;42;20656;-60
2022/08/25 07:38:03;;;;;;;14.95;6.53;;;;;;;;;;3365251;42;20558;-61
2022/08/25 07:40:33;;;;;;;12.40;6.90;;;;;;;;;;3365491;42;20102;-61
2022/08/25 07:43:02;;;;;;;13.60;7.23;;;;;;;;;;3364043;42;20151;-60
2022/08/25 07:45:30;;;;;;;13.30;7.00;;;;;;;;;;3365260;42;20209;-61
2022/08/25 07:48:00;;;;;;;14.52;7.13;;;;;;;;;;3361966;42;20088;-61
2022/08/25 07:50:26;;;;;;;14.45;7.03;;;;;;;;;;3363438;42;20483;-63
2022/08/25 07:52:52;;;;;;;16.60;6.97;;;;;;;;;;3363800;42;20143;-65
2022/08/25 07:55:18;;;;;;;13.63;7.07;;;;;;;;;;3365410;42;20154;-63
2022/08/25 07:57:46;;;;;;;12.82;6.72;;;;;;;;;;3365291;42;20147;-62
2022/08/25 08:00:13;;;;;;;12.35;6.72;;;;;;;;;;3364503;42;20095;-63
2022/08/25 08:02:39;;;;;;;12.95;6.70;;;;;;;;;;3364531;42;20139;-63
2022/08/25 08:05:07;;;;;;;12.93;7.10;;;;;;;;;;3364767;42;20634;-61
2022/08/25 08:07:39;;;;;;;11.57;6.37;;;;;;;;;;3363677;42;20582;-62
2022/08/25 08:10:10;;;;;;;13.45;6.88;;;;;;;;;;3364119;42;20158;-62
2022/08/25 08:12:36;;;;;;;11.30;6.82;;;;;;;;;;3365047;42;20178;-63
2022/08/25 08:15:03;;;;;;;15.02;6.80;;;;;;;;;;3365460;42;20107;-63
2022/08/25 08:17:30;;;;;;;12.02;6.97;;;;;;;;;;3366328;42;20138;-63
2022/08/25 08:19:57;;;;;;;12.17;6.80;;;;;;;;;;3366974;42;20095;-63
2022/08/25 08:22:23;;;;;;;11.32;6.47;;;;;;;;;;3365632;42;20174;-62
2022/08/25 08:24:49;;;;;;;12.43;6.18;;;;;;;;;;3367147;42;20104;-62
2022/08/25 08:27:15;;;;;;;9.68;6.00;;;;;;;;;;3366930;42;20131;-64
2022/08/25 08:29:41;;;;;;;11.70;6.60;;;;;;;;;;3366981;42;20554;-62
2022/08/25 08:32:09;;;;;;;23.40;8.20;;;;;;;;;;3365571;42;20084;-61
2022/08/25 08:34:35;;;;;;;11.23;6.72;;;;;;;;;;3367032;42;20099;-63
2022/08/25 08:37:01;;;;;;;13.52;7.03;;;;;;;;;;3367138;42;20100;-64
2022/08/25 08:39:27;;;;;;;11.32;6.47;;;;;;;;;;3365899;42;20088;-62
2022/08/25 08:42:15;;;;;;;12.45;6.70;;;;;;;;;;3365948;42;20182;-62
2022/08/25 08:44:44;;;;;;;13.47;6.50;;;;;;;;;;3366570;42;20574;-61
2022/08/25 08:47:20;;;;;;;13.70;6.65;;;;;;;;;;3368105;42;20170;-62
2022/08/25 08:50:08;;;;;;;12.05;6.90;;;;;;;;;;3365749;42;20084;-61
2022/08/25 08:52:44;;;;;;;12.98;6.25;;;;;;;;;;3366951;42;20124;-61
2022/08/25 08:55:31;;;;;;;12.75;7.00;;;;;;;;;;3365295;42;20091;-62
2022/08/25 08:58:03;;;;;;;11.20;6.97;;;;;;;;;;3365122;42;20151;-62
2022/08/25 09:00:31;;;;;;;16.65;7.10;;;;;;;;;;3365003;42;20558;-63
2022/08/25 09:03:03;;;;;;;12.73;6.93;;;;;;;;;;3365100;42;20167;-63
2022/08/25 09:05:29;;;;;;;12.45;6.95;;;;;;;;;;3364953;42;20140;-62
2022/08/25 09:08:05;;;;;;;13.25;7.30;;;;;;;;;;3365285;42;20100;-62
2022/08/25 09:10:49;;;;;;;13.63;7.30;;;;;;;;;;3362719;42;20126;-61
2022/08/25 09:13:27;;;;;;;13.80;7.13;;;;;;;;;;3364554;42;20118;-62
2022/08/25 09:19:07;;;;;;;14.32;7.57;;;;;;;;;;3365841;42;20134;-62
2022/08/25 09:21:53;;;;;;;12.75;7.13;;;;;;;;;;3366801;42;20111;-61
2022/08/25 09:24:43;;;;;;;15.30;7.90;;;;;;;;;;3357066;42;20561;-61
2022/08/25 09:27:18;;;;;;;13.45;7.78;;;;;;;;;;3360474;42;20087;-62
2022/08/25 09:29:59;;;;;;;15.07;8.05;;;;;;;;;;3366222;42;20087;-60
2022/08/25 09:32:27;;;;;;;14.88;8.07;;;;;;;;;;3365155;42;20166;-62
2022/08/25 09:34:54;;;;;;;15.38;7.63;;;;;;;;;;3366769;42;20181;-61
2022/08/25 09:37:20;;;;;;;12.93;7.50;;;;;;;;;;3366844;42;20091;-62
2022/08/25 09:39:46;;;;;;;13.88;7.93;;;;;;;;;;3364147;42;20088;-62
2022/08/25 09:42:12;;;;;;;14.13;7.78;;;;;;;;;;3366934;42;20510;-60
2022/08/25 09:44:40;;;;;;;13.75;8.50;;;;;;;;;;3366057;42;20844;-64
2022/08/25 09:47:24;;;;;;;13.47;7.40;;;;;;;;;;3366765;42;20171;-61
2022/08/25 09:49:58;;;;;;;12.63;7.70;;;;;;;;;;3366481;42;20146;-62
2022/08/25 09:52:30;;;;;;;11.50;7.05;;;;;;;;;;3365257;42;20606;-64
2022/08/25 09:55:20;;;;;;;17.75;7.85;;;;;;;;;;3361360;42;20270;-62
2022/08/25 09:57:50;;;;;;;13.77;7.93;;;;;;;;;;3364568;42;20143;-61
2022/08/25 10:00:20;;;;;;;15.80;7.67;;;;;;;;;;3365978;42;20103;-61
2022/08/25 10:03:34;;;;;;;13.57;7.50;;;;;;;;;;3365676;42;20084;-61
2022/08/25 10:06:12;;;;;;;13.52;7.28;;;;;;;;;;3358793;42;20166;-60
2022/08/25 10:08:44;;;;;;;15.27;8.18;;;;;;;;;;3366031;42;20098;-63
2022/08/25 10:11:17;;;;;;;12.30;7.45;;;;;;;;;;3365751;42;20091;-62
2022/08/25 10:13:45;;;;;;;13.63;8.30;;;;;;;;;;3364873;42;20608;-61
2022/08/25 10:16:23;;;;;;;13.18;7.57;;;;;;;;;;3366270;42;20596;-62
2022/08/25 10:19:22;;;;;;;16.27;7.72;;;;;;;;;;3364717;42;20513;-60
2022/08/25 10:22:07;;;;;;;14.88;7.47;;;;;;;;;;3348204;42;20576;-62
2022/08/25 10:24:33;;;;;;;13.30;7.75;;;;;;;;;;3365970;42;20095;-60
2022/08/25 10:27:23;;;;;;;14.27;7.90;;;;;;;;;;3366120;42;20092;-62
2022/08/25 10:30:05;;;;;;;15.32;8.05;;;;;;;;;;3364549;42;20547;-63
2022/08/25 10:33:04;;;;;;;11.50;7.10;;;;;;;;;;3364120;42;20550;-64
2022/08/25 10:35:51;;;;;;;15.63;7.95;;;;;;;;;;3360131;42;20143;-63
2022/08/25 10:38:36;;;;;;;14.10;7.95;;;;;;;;;;3365447;42;20087;-62
2022/08/25 10:41:21;;;;;;;13.30;7.90;;;;;;;;;;3366294;42;20184;-61
2022/08/25 10:44:02;;;;;;;13.52;7.90;;;;;;;;;;3362303;42;20096;-62
2022/08/25 10:46:34;;;;;;;13.52;7.78;;;;;;;;;;3361923;42;20166;-61
2022/08/25 10:49:19;;;;;;;14.32;7.88;;;;;;;;;;3356877;42;20085;-61
2022/08/25 10:51:55;;;;;;;12.10;8.00;;;;;;;;;;3362322;42;20570;-62
2022/08/25 10:54:52;;;;;;;15.40;7.90;;;;;;;;;;3361335;42;20104;-61
2022/08/25 10:57:35;;;;;;;12.68;7.55;;;;;;;;;;3364504;42;20116;-62
2022/08/25 11:00:08;;;;;;;16.58;7.43;;;;;;;;;;3364771;42;20173;-61
2022/08/25 11:03:03;;;;;;;15.35;8.00;;;;;;;;;;3356737;42;20096;-62
2022/08/25 11:05:30;;;;;;;13.07;7.57;;;;;;;;;;3360267;42;20091;-61
2022/08/25 11:08:25;;;;;;;12.77;7.80;;;;;;;;;;3361797;42;20100;-63
2022/08/25 11:11:02;;;;;;;13.50;7.68;;;;;;;;;;3352687;42;20150;-61
2022/08/25 11:13:28;;;;;;;13.80;7.75;;;;;;;;;;3358787;42;20191;-62
2022/08/25 11:16:10;;;;;;;13.20;7.97;;;;;;;;;;3364606;42;20093;-61
2022/08/25 11:18:36;;;;;;;13.07;7.70;;;;;;;;;;3364204;42;20618;-61
2022/08/25 11:21:22;;;;;;;14.60;7.93;;;;;;;;;;3363479;42;20646;-61
2022/08/25 11:24:20;;;;;;;13.77;7.65;;;;;;;;;;3357673;42;20096;-62
2022/08/25 11:26:53;;;;;;;12.77;7.32;;;;;;;;;;3350833;42;20080;-62
2022/08/25 11:29:20;;;;;;;11.73;7.53;;;;;;;;;;3364299;42;20099;-61
2022/08/25 11:31:48;;;;;;;13.57;7.68;;;;;;;;;;3365315;42;20086;-61
2022/08/25 11:34:14;;;;;;;14.50;7.93;;;;;;;;;;3360972;42;20136;-61
2022/08/25 11:36:42;;;;;;;15.45;7.80;;;;;;;;;;3361750;42;20493;-62
2022/08/25 11:39:15;;;;;;;16.30;7.88;;;;;;;;;;3351805;42;20150;-63
2022/08/25 11:41:56;;;;;;;12.15;7.65;;;;;;;;;;3360587;42;20571;-63
2022/08/25 11:44:40;;;;;;;16.05;7.78;;;;;;;;;;3365214;42;20076;-62
2022/08/25 11:47:21;;;;;;;13.50;7.30;;;;;;;;;;3359900;42;20103;-61
2022/08/25 11:50:25;;;;;;;13.98;6.90;;;;;;;;;;3360579;42;20106;-61
2022/08/25 11:52:55;;;;;;;14.07;7.90;;;;;;;;;;3367354;42;20554;-64
2022/08/25 11:55:45;;;;;;;13.25;7.60;;;;;;;;;;3367006;42;20104;-62
2022/08/25 11:58:26;;;;;;;13.63;7.70;;;;;;;;;;3359092;42;20105;-62
2022/08/25 12:00:53;;;;;;;14.07;7.00;;;;;;;;;;3367456;42;20163;-61
2022/08/25 12:03:31;;;;;;;14.65;7.70;;;;;;;;;;3365905;42;20083;-61
2022/08/25 12:06:36;;;;;;;13.75;7.55;;;;;;;;;;3368481;42;20102;-62
2022/08/25 12:09:02;;;;;;;13.50;7.78;;;;;;;;;;3331547;42;20581;-62
2022/08/25 12:11:38;;;;;;;15.57;7.47;;;;;;;;;;3339529;42;20088;-60
2022/08/25 12:14:13;;;;;;;14.03;7.50;;;;;;;;;;3354857;42;20699;-60
2022/08/25 12:16:44;;;;;;;13.82;7.10;;;;;;;;;;3366883;42;20098;-61
2022/08/25 12:19:23;;;;;;;13.70;7.53;;;;;;;;;;3365807;42;20500;-61
2022/08/25 12:21:50;;;;;;;12.80;6.65;;;;;;;;;;3367690;42;20103;-59
2022/08/25 12:24:21;;;;;;;18.50;7.32;;;;;;;;;;3365907;42;20096;-62
2022/08/25 12:26:49;;;;;;;13.90;6.90;;;;;;;;;;3365449;42;20092;-63
2022/08/25 12:29:36;;;;;;;14.18;7.47;;;;;;;;;;3366046;42;20100;-62
2022/08/25 12:32:26;;;;;;;13.88;6.90;;;;;;;;;;3366037;42;20191;-60
2022/08/25 12:35:29;;;;;;;17.08;6.43;;;;;;;;;;3359429;42;20100;-61
2022/08/25 12:38:07;;;;;;;16.70;6.70;;;;;;;;;;3366920;42;20218;-59
2022/08/25 12:40:42;;;;;;;16.57;7.03;;;;;;;;;;3365373;42;20130;-61
2022/08/25 12:43:26;;;;;;;14.30;6.70;;;;;;;;;;3366974;42;20564;-63
2022/08/25 12:45:54;;;;;;;11.85;6.40;;;;;;;;;;3365897;42;20102;-61
2022/08/25 12:48:26;;;;;;;11.82;6.18;;;;;;;;;;3365407;42;20106;-61
2022/08/25 12:51:03;;;;;;;12.02;6.40;;;;;;;;;;3364705;42;20568;-62
2022/08/25 12:53:32;;;;;;;13.80;6.90;;;;;;;;;;3365418;42;20620;-64
2022/08/25 12:56:08;;;;;;;13.10;6.30;;;;;;;;;;3354208;42;20170;-62
2022/08/25 12:58:50;;;;;;;13.85;5.90;;;;;;;;;;3364492;42;20080;-61
2022/08/25 13:01:23;;;;;;;15.50;5.93;;;;;;;;;;3356542;42;20110;-62
2022/08/25 13:04:22;;;;;;;19.13;6.47;;;;;;;;;;3350814;42;20505;-61
2022/08/25 13:06:58;;;;;;;15.67;6.10;;;;;;;;;;3357583;42;20088;-61
2022/08/25 13:09:30;;;;;;;14.80;5.97;;;;;;;;;;3356820;42;20139;-61
2022/08/25 13:12:09;;;;;;;12.80;6.28;;;;;;;;;;3361927;42;20102;-61
2022/08/25 13:14:39;;;;;;;11.27;6.00;;;;;;;;;;3362478;42;20571;-61
2022/08/25 13:17:05;;;;;;;13.18;6.10;;;;;;;;;;3362898;42;20552;-60
2022/08/25 13:19:31;;;;;;;11.27;5.83;;;;;;;;;;3361654;42;20154;-61
2022/08/25 13:21:57;;;;;;;11.07;5.93;;;;;;;;;;3362915;42;20087;-61
2022/08/25 13:24:34;;;;;;;16.17;6.40;;;;;;;;;;3361721;42;20156;-62
2022/08/25 13:27:03;;;;;;;13.02;6.13;;;;;;;;;;3359836;42;20096;-62
2022/08/25 13:29:30;;;;;;;12.37;6.37;;;;;;;;;;3359564;42;20131;-62
2022/08/25 13:31:58;;;;;;;13.32;6.07;;;;;;;;;;3360911;42;20663;-61
2022/08/25 13:34:35;;;;;;;11.48;6.15;;;;;;;;;;3358602;42;20103;-61
2022/08/25 13:37:26;;;;;;;15.27;6.53;;;;;;;;;;3360995;42;20096;-63
2022/08/25 13:40:15;;;;;;;15.40;6.63;;;;;;;;;;3360579;42;20099;-60
2022/08/25 13:42:42;;;;;;;12.83;7.00;;;;;;;;;;3366489;42;20092;-61
2022/08/25 13:45:14;;;;;;;14.20;6.55;;;;;;;;;;3365192;42;20714;-63
2022/08/25 13:47:40;;;;;;;14.25;6.60;;;;;;;;;;3357292;42;20502;-61
2022/08/25 13:50:25;;;;;;;12.60;6.82;;;;;;;;;;3360907;42;20145;-60
2022/08/25 13:52:56;;;;;;;14.48;6.97;;;;;;;;;;3362811;42;20092;-60
2022/08/25 13:55:24;;;;;;;15.63;6.67;;;;;;;;;;3360198;42;20131;-62
2022/08/25 13:57:50;;;;;;;15.48;6.75;;;;;;;;;;3360145;42;20098;-61
2022/08/25 14:00:40;;;;;;;15.80;6.90;;;;;;;;;;3358337;42;20179;-60
2022/08/25 14:03:06;;;;;;;12.57;6.47;;;;;;;;;;3360111;42;20654;-60
2022/08/25 14:05:40;;;;;;;13.02;6.80;;;;;;;;;;3358285;42;20152;-60
2022/08/25 14:08:25;;;;;;;12.50;6.97;;;;;;;;;;3362288;42;20139;-61
2022/08/25 14:11:06;;;;;;;15.07;6.80;;;;;;;;;;3359261;42;20079;-61
2022/08/25 14:13:32;;;;;;;13.77;7.05;;;;;;;;;;3359019;42;20111;-60
2022/08/25 14:16:18;;;;;;;14.95;7.03;;;;;;;;;;3360904;42;20184;-60
2022/08/25 14:18:52;;;;;;;11.65;6.97;;;;;;;;;;3357865;42;20162;-61
2022/08/25 14:21:19;;;;;;;16.33;7.73;;;;;;;;;;3362040;42;20214;-58
2022/08/25 14:23:45;;;;;;;14.45;7.45;;;;;;;;;;3363770;42;20553;-59
2022/08/25 14:26:11;;;;;;;13.85;7.35;;;;;;;;;;3365845;42;20546;-62
2022/08/25 14:28:37;;;;;;;17.98;7.32;;;;;;;;;;3365376;42;20098;-59
2022/08/25 14:31:12;;;;;;;13.47;7.47;;;;;;;;;;3365476;42;20170;-60
2022/08/25 14:33:41;;;;;;;14.02;7.18;;;;;;;;;;3364172;42;20162;-61
2022/08/25 14:36:07;;;;;;;17.30;7.20;;;;;;;;;;3363907;42;20159;-62
2022/08/25 14:38:33;;;;;;;12.10;6.85;;;;;;;;;;3365291;42;20146;-60
2022/08/25 14:40:59;;;;;;;17.52;7.18;;;;;;;;;;3365330;42;20084;-60
2022/08/25 14:43:25;;;;;;;16.90;7.83;;;;;;;;;;3363725;42;20175;-62
2022/08/25 14:45:51;;;;;;;16.67;7.32;;;;;;;;;;3364635;42;20152;-60
2022/08/25 14:48:24;;;;;;;18.35;7.63;;;;;;;;;;3362001;42;21033;-61
2022/08/25 14:50:51;;;;;;;15.35;9.48;;;;;;;;;;3363034;42;20088;-61
2022/08/25 14:53:17;;;;;;;13.98;7.60;;;;;;;;;;3360010;42;20089;-62
2022/08/25 14:55:43;;;;;;;17.73;7.40;;;;;;;;;;3363938;42;20079;-60
2022/08/25 14:58:09;;;;;;;14.75;7.70;;;;;;;;;;3365289;42;20182;-61
2022/08/25 15:00:41;;;;;;;13.43;7.38;;;;;;;;;;3365427;42;20165;-60